createdAt,value
2022-12-14T00:01:18.672Z,52.63
2022-12-14T00:03:46.329Z,52.78
2022-12-14T00:06:18.438Z,52.78
2022-12-14T00:08:46.605Z,52.53
2022-12-14T00:11:16.760Z,52.68
2022-12-14T00:13:43.898Z,52.73
2022-12-14T00:16:17.708Z,52.78
2022-12-14T00:18:48.624Z,52.60
2022-12-14T00:21:15.559Z,52.61
2022-12-14T00:23:45.092Z,52.60
2022-12-14T00:26:44.770Z,52.59
2022-12-14T00:29:11.806Z,52.65
2022-12-14T00:31:38.350Z,52.62
2022-12-14T00:34:04.885Z,52.58
2022-12-14T00:36:31.762Z,52.58
2022-12-14T00:38:58.601Z,52.44
2022-12-14T00:41:25.055Z,52.56
2022-12-14T00:43:51.619Z,52.65
2022-12-14T00:46:18.450Z,52.55
2022-12-14T00:48:45.472Z,52.58
2022-12-14T00:51:14.617Z,52.65
2022-12-14T00:53:41.686Z,52.54
2022-12-14T00:56:08.381Z,52.64
2022-12-14T00:58:35.609Z,52.49
2022-12-14T01:01:05.992Z,52.51
2022-12-14T01:03:33.798Z,52.45
2022-12-14T01:06:00.626Z,52.27
2022-12-14T01:08:35.072Z,52.54
2022-12-14T01:11:09.276Z,52.41
2022-12-14T01:13:37.335Z,52.48
2022-12-14T01:16:09.665Z,52.38
2022-12-14T01:18:37.880Z,52.56
2022-12-14T01:21:20.043Z,52.41
2022-12-14T01:23:48.013Z,52.44
2022-12-14T01:26:16.529Z,52.46
2022-12-14T01:28:43.700Z,52.41
2022-12-14T01:31:14.281Z,52.23
2022-12-14T01:33:41.423Z,52.48
2022-12-14T01:36:10.508Z,52.45
2022-12-14T01:38:37.419Z,52.63
2022-12-14T01:41:04.889Z,52.45
2022-12-14T01:43:50.914Z,52.40
2022-12-14T01:46:38.695Z,52.44
2022-12-14T01:49:14.109Z,52.50
2022-12-14T01:51:43.850Z,52.43
2022-12-14T01:54:13.181Z,52.34
2022-12-14T01:56:42.993Z,52.55
2022-12-14T01:59:18.717Z,52.53
2022-12-14T02:01:46.226Z,52.48
2022-12-14T02:04:16.964Z,52.41
2022-12-14T02:06:45.252Z,52.50
2022-12-14T02:09:18.101Z,52.51
2022-12-14T02:12:10.588Z,52.40
2022-12-14T02:14:37.419Z,52.26
2022-12-14T02:17:04.608Z,52.32
2022-12-14T02:19:31.074Z,52.41
2022-12-14T02:22:25.063Z,52.44
2022-12-14T02:25:09.875Z,52.20
2022-12-14T02:28:03.677Z,52.27
2022-12-14T02:30:35.535Z,52.18
2022-12-14T02:33:31.246Z,52.32
2022-12-14T02:36:04.354Z,52.17
2022-12-14T02:38:44.730Z,52.28
2022-12-14T02:41:16.977Z,52.29
2022-12-14T02:43:53.759Z,52.22
2022-12-14T02:46:32.827Z,52.25
2022-12-14T02:49:10.368Z,52.09
2022-12-14T02:51:58.272Z,52.26
2022-12-14T02:54:53.499Z,52.29
2022-12-14T02:57:26.753Z,52.25
2022-12-14T02:59:57.136Z,52.23
2022-12-14T03:02:25.253Z,52.28
2022-12-14T03:04:52.256Z,52.24
2022-12-14T03:07:33.807Z,52.26
2022-12-14T03:10:32.568Z,52.20
2022-12-14T03:13:15.471Z,52.30
2022-12-14T03:15:45.900Z,52.23
2022-12-14T03:18:15.945Z,52.22
2022-12-14T03:20:45.951Z,52.15
2022-12-14T03:23:16.825Z,52.13
2022-12-14T03:25:50.349Z,52.18
2022-12-14T03:28:24.096Z,52.10
2022-12-14T03:31:01.149Z,52.24
2022-12-14T03:33:31.897Z,52.14
2022-12-14T03:36:06.850Z,52.29
2022-12-14T03:38:41.638Z,52.23
2022-12-14T03:41:29.078Z,52.40
2022-12-14T03:44:29.590Z,52.35
2022-12-14T03:47:04.064Z,52.23
2022-12-14T03:49:36.565Z,52.38
2022-12-14T03:52:35.593Z,52.43
2022-12-14T03:55:11.099Z,52.26
2022-12-14T03:57:53.801Z,52.41
2022-12-14T04:00:23.582Z,52.48
2022-12-14T04:03:21.911Z,52.32
2022-12-14T04:06:05.772Z,52.32
2022-12-14T04:08:47.385Z,52.20
2022-12-14T04:11:35.329Z,52.24
2022-12-14T04:14:48.496Z,52.40
2022-12-14T04:17:41.581Z,52.35
2022-12-14T04:20:13.117Z,52.44
2022-12-14T04:22:46.187Z,52.43
2022-12-14T04:25:37.501Z,52.25
2022-12-14T04:28:43.051Z,52.22
2022-12-14T04:31:14.110Z,52.33
2022-12-14T04:33:47.280Z,52.31
2022-12-14T04:36:30.424Z,52.34
2022-12-14T04:39:02.573Z,52.30
2022-12-14T04:41:36.328Z,52.45
2022-12-14T04:44:13.511Z,52.42
2022-12-14T04:46:41.789Z,52.46
2022-12-14T04:49:19.400Z,52.53
2022-12-14T04:52:05.185Z,52.53
2022-12-14T04:54:42.578Z,52.28
2022-12-14T04:57:23.940Z,52.39
2022-12-14T04:59:50.920Z,52.30
2022-12-14T05:02:36.225Z,52.43
2022-12-14T05:05:02.782Z,52.28
2022-12-14T05:07:57.394Z,52.41
2022-12-14T05:10:44.771Z,52.26
2022-12-14T05:13:18.598Z,52.35
2022-12-14T05:15:54.334Z,52.36
2022-12-14T05:18:21.244Z,52.53
2022-12-14T05:20:48.216Z,52.40
2022-12-14T05:23:16.025Z,52.23
2022-12-14T05:25:42.667Z,52.41
2022-12-14T05:28:12.797Z,52.25
2022-12-14T05:30:39.781Z,52.39
2022-12-14T05:33:06.325Z,52.39
2022-12-14T05:35:32.857Z,52.14
2022-12-14T05:38:00.086Z,52.18
2022-12-14T05:40:26.704Z,52.36
2022-12-14T05:43:04.634Z,52.17
2022-12-14T05:45:31.188Z,52.34
2022-12-14T05:47:57.684Z,52.16
2022-12-14T05:50:24.300Z,52.18
2022-12-14T05:52:51.983Z,52.37
2022-12-14T05:55:18.578Z,52.02
2022-12-14T05:57:45.123Z,52.16
2022-12-14T06:00:12.121Z,52.09
2022-12-14T06:02:38.683Z,52.10
2022-12-14T06:05:05.624Z,52.11
2022-12-14T06:07:32.204Z,52.22
2022-12-14T06:09:58.694Z,52.04
2022-12-14T06:12:26.224Z,52.15
2022-12-14T06:14:52.762Z,51.97
2022-12-14T06:17:19.302Z,52.13
2022-12-14T06:19:49.756Z,51.93
2022-12-14T06:22:17.478Z,51.99
2022-12-14T06:24:43.984Z,52.00
2022-12-14T06:27:10.565Z,52.04
2022-12-14T06:29:37.165Z,52.07
2022-12-14T06:32:03.695Z,51.96
2022-12-14T06:34:32.872Z,51.98
2022-12-14T06:37:03.304Z,51.85
2022-12-14T06:39:29.945Z,51.77
2022-12-14T06:41:56.942Z,51.69
2022-12-14T06:44:23.485Z,52.00
2022-12-14T06:46:49.988Z,51.68
2022-12-14T06:49:17.227Z,51.80
2022-12-14T06:51:44.073Z,51.86
2022-12-14T06:54:12.165Z,51.74
2022-12-14T06:56:43.000Z,51.82
2022-12-14T06:59:10.053Z,51.83
2022-12-14T07:01:37.960Z,51.77
2022-12-14T07:04:05.809Z,51.86
2022-12-14T07:06:35.568Z,51.96
2022-12-14T07:09:03.927Z,51.95
2022-12-14T07:11:30.970Z,51.98
2022-12-14T07:14:00.604Z,51.87
2022-12-14T07:16:29.330Z,52.03
2022-12-14T07:18:56.491Z,51.91
2022-12-14T07:21:24.136Z,52.10
2022-12-14T07:23:52.450Z,51.92
2022-12-14T07:26:24.637Z,52.00
2022-12-14T07:28:52.503Z,51.90
2022-12-14T07:31:22.107Z,51.98
2022-12-14T07:33:48.759Z,52.07
2022-12-14T07:36:17.963Z,51.96
2022-12-14T07:38:46.444Z,52.11
2022-12-14T07:41:23.012Z,51.97
2022-12-14T07:43:51.007Z,51.70
2022-12-14T07:46:20.049Z,51.90
2022-12-14T07:48:49.320Z,51.96
2022-12-14T07:51:18.663Z,52.02
2022-12-14T07:53:45.557Z,52.05
2022-12-14T07:56:36.036Z,52.07
2022-12-14T07:59:04.709Z,51.92
2022-12-14T08:01:34.448Z,52.15
2022-12-14T08:04:08.241Z,52.13
2022-12-14T08:06:35.991Z,51.88
2022-12-14T08:09:03.004Z,52.13
2022-12-14T08:11:29.578Z,51.97
2022-12-14T08:14:01.046Z,52.14
2022-12-14T08:16:28.426Z,52.05
2022-12-14T08:18:56.562Z,52.18
2022-12-14T08:21:24.068Z,52.12
2022-12-14T08:23:52.846Z,52.21
2022-12-14T08:26:19.708Z,52.17
2022-12-14T08:28:47.628Z,52.15
2022-12-14T08:31:16.796Z,52.08
2022-12-14T08:33:45.243Z,52.10
2022-12-14T08:36:14.623Z,52.16
2022-12-14T08:38:41.995Z,52.14
2022-12-14T08:41:10.871Z,51.89
2022-12-14T08:43:38.010Z,51.98
2022-12-14T08:46:05.432Z,52.03
2022-12-14T08:48:32.200Z,51.94
2022-12-14T08:51:06.560Z,51.86
2022-12-14T08:53:33.926Z,52.02
2022-12-14T08:56:05.618Z,52.01
2022-12-14T08:58:32.363Z,51.97
2022-12-14T09:01:07.137Z,52.07
2022-12-14T09:03:34.201Z,52.14
2022-12-14T09:06:08.360Z,52.02
2022-12-14T09:08:35.755Z,52.08
2022-12-14T09:11:04.512Z,52.01
2022-12-14T09:13:32.605Z,52.08
2022-12-14T09:16:08.392Z,52.13
2022-12-14T09:18:35.220Z,52.17
2022-12-14T09:21:02.835Z,52.15
2022-12-14T09:23:31.904Z,51.88
2022-12-14T09:26:04.936Z,51.99
2022-12-14T09:28:33.629Z,52.04
2022-12-14T09:31:05.215Z,52.09
2022-12-14T09:33:33.170Z,52.03
2022-12-14T09:36:05.717Z,52.19
2022-12-14T09:38:34.968Z,52.09
2022-12-14T09:41:07.410Z,52.07
2022-12-14T09:43:51.336Z,52.26
2022-12-14T09:46:55.572Z,52.18
2022-12-14T09:49:32.107Z,52.07
2022-12-14T09:52:09.345Z,52.24
2022-12-14T09:54:38.377Z,52.21
2022-12-14T09:57:12.191Z,52.32
2022-12-14T09:59:38.889Z,52.32
2022-12-14T10:02:33.637Z,52.49
2022-12-14T10:05:16.260Z,52.43
2022-12-14T10:08:02.932Z,52.49
2022-12-14T10:11:06.337Z,52.56
2022-12-14T10:13:47.890Z,52.55
2022-12-14T10:16:36.979Z,52.64
2022-12-14T10:19:35.036Z,52.57
2022-12-14T10:22:14.086Z,52.59
2022-12-14T10:24:47.415Z,52.48
2022-12-14T10:27:22.816Z,52.38
2022-12-14T10:29:52.095Z,52.51
2022-12-14T10:32:25.776Z,52.48
2022-12-14T10:34:52.468Z,52.46
2022-12-14T10:37:37.663Z,52.24
2022-12-14T10:40:29.302Z,52.32
2022-12-14T10:43:26.589Z,52.21
2022-12-14T10:46:22.681Z,52.13
2022-12-14T10:49:05.311Z,52.09
2022-12-14T10:51:39.096Z,52.09
2022-12-14T10:54:22.865Z,51.99
2022-12-14T10:56:50.578Z,51.76
2022-12-14T10:59:26.422Z,51.58
2022-12-14T11:02:01.484Z,51.35
2022-12-14T11:04:31.092Z,51.27
2022-12-14T11:07:00.068Z,51.23
2022-12-14T11:09:27.549Z,51.08
2022-12-14T11:12:12.885Z,50.99
2022-12-14T11:14:52.162Z,50.70
2022-12-14T11:17:45.260Z,50.69
2022-12-14T11:20:16.961Z,50.66
2022-12-14T11:22:46.525Z,50.38
2022-12-14T11:25:28.612Z,50.31
2022-12-14T11:27:55.417Z,50.21
2022-12-14T11:30:21.929Z,50.13
2022-12-14T11:32:49.300Z,50.14
2022-12-14T11:35:20.317Z,50.00
2022-12-14T11:37:50.879Z,49.88
2022-12-14T11:40:25.224Z,49.79
2022-12-14T11:43:00.372Z,49.53
2022-12-14T11:45:26.835Z,49.58
2022-12-14T11:48:15.279Z,49.24
2022-12-14T11:50:43.145Z,49.05
2022-12-14T11:53:11.963Z,49.06
2022-12-14T11:55:43.636Z,48.75
2022-12-14T11:58:22.875Z,48.70
2022-12-14T12:00:58.566Z,48.46
2022-12-14T12:03:29.853Z,48.42
2022-12-14T12:06:03.354Z,48.32
2022-12-14T12:08:33.484Z,48.26
2022-12-14T12:11:02.922Z,48.17
2022-12-14T12:13:35.282Z,47.96
2022-12-14T12:16:06.509Z,47.92
2022-12-14T12:18:46.904Z,47.63
2022-12-14T12:21:27.996Z,47.73
2022-12-14T12:24:01.425Z,47.66
2022-12-14T12:26:36.963Z,47.49
2022-12-14T12:29:10.171Z,47.49
2022-12-14T12:31:45.803Z,47.49
2022-12-14T12:34:21.949Z,47.42
2022-12-14T12:37:24.224Z,47.33
2022-12-14T12:39:41.265Z,47.19
2022-12-14T12:42:20.667Z,47.06
2022-12-14T12:45:01.563Z,46.80
2022-12-14T12:47:47.360Z,46.72
2022-12-14T12:50:18.103Z,46.63
2022-12-14T12:53:17.073Z,46.44
2022-12-14T12:55:54.236Z,46.44
2022-12-14T12:58:32.181Z,46.39
2022-12-14T13:01:17.662Z,46.32
2022-12-14T13:03:47.853Z,46.37
2022-12-14T13:06:20.763Z,46.06
2022-12-14T13:08:53.508Z,45.96
2022-12-14T13:11:27.054Z,45.91
2022-12-14T13:14:17.344Z,45.83
2022-12-14T13:16:45.809Z,45.96
2022-12-14T13:22:17.013Z,45.65
2022-12-14T13:24:47.259Z,45.63
2022-12-14T13:27:25.620Z,45.54
2022-12-14T13:30:23.306Z,45.52
2022-12-14T13:32:58.672Z,45.54
2022-12-14T13:35:28.373Z,45.48
2022-12-14T13:38:22.773Z,45.42
2022-12-14T13:41:15.562Z,45.49
2022-12-14T13:43:57.152Z,45.41
2022-12-14T13:46:29.296Z,45.42
2022-12-14T13:49:02.952Z,45.39
2022-12-14T13:51:32.606Z,45.46
2022-12-14T13:54:00.988Z,45.47
2022-12-14T13:56:34.939Z,45.37
2022-12-14T13:59:06.200Z,45.43
2022-12-14T14:01:48.224Z,45.39
2022-12-14T14:04:29.673Z,45.38
2022-12-14T14:07:25.262Z,45.56
2022-12-14T14:09:54.876Z,45.40
2022-12-14T14:12:43.856Z,45.43
2022-12-14T14:15:26.203Z,45.40
2022-12-14T14:17:54.554Z,45.50
2022-12-14T14:21:13.316Z,45.36
2022-12-14T14:24:18.103Z,45.35
2022-12-14T14:27:08.485Z,45.45
2022-12-14T14:29:36.746Z,45.50
2022-12-14T14:32:29.384Z,45.57
2022-12-14T14:34:56.080Z,45.46
2022-12-14T14:37:27.266Z,45.63
2022-12-14T14:40:38.408Z,45.56
2022-12-14T14:43:30.135Z,45.60
2022-12-14T14:46:01.992Z,45.61
2022-12-14T14:48:50.385Z,45.62
2022-12-14T14:51:25.259Z,45.68
2022-12-14T14:54:36.983Z,45.78
2022-12-14T14:57:02.876Z,45.75
2022-12-14T14:59:43.787Z,45.70
2022-12-14T15:02:31.628Z,45.88
2022-12-14T15:05:17.502Z,45.59
2022-12-14T15:07:46.722Z,45.82
2022-12-14T15:10:26.704Z,45.91
2022-12-14T15:12:56.860Z,46.06
2022-12-14T15:15:47.587Z,45.94
2022-12-14T15:18:22.526Z,46.03
2022-12-14T15:21:06.251Z,46.04
2022-12-14T15:23:55.097Z,45.75
2022-12-14T15:26:26.877Z,46.08
2022-12-14T15:28:56.601Z,46.03
2022-12-14T15:31:40.047Z,46.11
2022-12-14T15:34:07.840Z,46.11
2022-12-14T15:36:37.887Z,45.99
2022-12-14T15:39:04.690Z,46.20
2022-12-14T15:41:33.229Z,46.19
2022-12-14T15:44:00.705Z,46.21
2022-12-14T15:46:34.989Z,46.13
2022-12-14T15:49:06.965Z,46.20
2022-12-14T15:51:38.059Z,46.09
2022-12-14T15:54:07.099Z,46.14
2022-12-14T15:56:35.333Z,46.10
2022-12-14T15:59:05.155Z,46.09
2022-12-14T16:01:40.469Z,46.09
2022-12-14T16:04:10.452Z,46.17
2022-12-14T16:06:42.759Z,46.16
2022-12-14T16:09:27.365Z,46.17
2022-12-14T16:11:57.252Z,46.24
2022-12-14T16:14:47.023Z,46.35
2022-12-14T16:17:18.122Z,46.41
2022-12-14T16:19:59.393Z,46.40
2022-12-14T16:22:31.164Z,46.37
2022-12-14T16:25:07.937Z,46.38
2022-12-14T16:27:39.456Z,46.47
2022-12-14T16:30:24.404Z,46.50
2022-12-14T16:32:53.551Z,46.59
2022-12-14T16:35:23.497Z,46.65
2022-12-14T16:37:54.212Z,46.70
2022-12-14T16:40:29.625Z,46.66
2022-12-14T16:42:56.115Z,46.74
2022-12-14T16:45:41.385Z,46.80
2022-12-14T16:48:09.085Z,46.69
2022-12-14T16:53:25.200Z,47.02
2022-12-14T16:56:16.412Z,46.81
2022-12-14T16:58:53.164Z,47.02
2022-12-14T17:01:20.708Z,47.02
2022-12-14T17:03:55.411Z,46.92
2022-12-14T17:06:28.852Z,47.05
2022-12-14T17:08:55.431Z,47.06
2022-12-14T17:11:21.891Z,47.12
2022-12-14T17:13:49.683Z,47.20
2022-12-14T17:16:21.045Z,47.17
2022-12-14T17:18:48.141Z,47.40
2022-12-14T17:21:23.647Z,47.35
2022-12-14T17:23:50.606Z,47.45
2022-12-14T17:26:23.715Z,47.60
2022-12-14T17:28:50.823Z,47.66
2022-12-14T17:31:20.100Z,47.65
2022-12-14T17:33:46.865Z,47.52
2022-12-14T17:36:13.393Z,47.52
2022-12-14T17:38:40.595Z,47.93
2022-12-14T17:41:07.432Z,47.46
2022-12-14T17:43:34.543Z,47.55
2022-12-14T17:46:03.083Z,47.51
2022-12-14T17:48:29.686Z,47.57
2022-12-14T17:50:56.354Z,47.63
2022-12-14T17:53:29.104Z,47.81
2022-12-14T17:55:56.426Z,47.73
2022-12-14T17:58:23.008Z,47.95
2022-12-14T18:01:02.752Z,47.79
2022-12-14T18:03:32.122Z,47.90
2022-12-14T18:05:59.548Z,47.97
2022-12-14T18:08:26.972Z,48.03
2022-12-14T18:11:02.106Z,48.05
2022-12-14T18:13:31.754Z,48.00
2022-12-14T18:15:59.971Z,48.27
2022-12-14T18:18:28.203Z,48.27
2022-12-14T18:21:00.626Z,48.33
2022-12-14T18:23:29.726Z,48.35
2022-12-14T18:25:59.476Z,48.33
2022-12-14T18:28:26.336Z,48.31
2022-12-14T18:30:59.099Z,48.31
2022-12-14T18:33:27.938Z,48.38
2022-12-14T18:35:56.463Z,48.29
2022-12-14T18:38:23.887Z,48.43
2022-12-14T18:40:53.136Z,48.29
2022-12-14T18:43:25.575Z,48.26
2022-12-14T18:45:53.444Z,48.51
2022-12-14T18:48:20.553Z,48.42
2022-12-14T18:50:49.628Z,48.44
2022-12-14T18:53:19.168Z,48.65
2022-12-14T18:55:45.838Z,48.50
2022-12-14T18:58:17.589Z,48.54
2022-12-14T19:00:44.866Z,48.48
2022-12-14T19:03:11.671Z,48.49
2022-12-14T19:05:38.521Z,48.42
2022-12-14T19:08:05.292Z,48.52
2022-12-14T19:10:32.969Z,48.49
2022-12-14T19:12:59.484Z,48.61
2022-12-14T19:15:29.309Z,48.52
2022-12-14T19:17:56.296Z,48.46
2022-12-14T19:20:23.690Z,48.43
2022-12-14T19:22:50.744Z,48.65
2022-12-14T19:25:19.507Z,48.62
2022-12-14T19:28:30.197Z,48.65
2022-12-14T19:30:34.550Z,48.71
2022-12-14T19:33:01.064Z,48.79
2022-12-14T19:35:27.966Z,48.62
2022-12-14T19:37:54.608Z,48.84
2022-12-14T19:40:21.349Z,48.70
2022-12-14T19:42:47.934Z,48.73
2022-12-14T19:45:15.648Z,48.92
2022-12-14T19:47:43.948Z,48.68
2022-12-14T19:50:13.396Z,48.63
2022-12-14T19:52:40.187Z,48.77
2022-12-14T19:55:07.226Z,48.66
2022-12-14T19:57:33.726Z,48.63
2022-12-14T20:00:00.376Z,48.82
2022-12-14T20:02:27.156Z,48.51
2022-12-14T20:04:53.963Z,48.52
2022-12-14T20:07:20.522Z,48.54
2022-12-14T20:09:47.059Z,48.46
2022-12-14T20:12:13.817Z,48.53
2022-12-14T20:14:40.645Z,48.71
2022-12-14T20:17:08.360Z,48.67
2022-12-14T20:19:36.249Z,48.84
2022-12-14T20:22:02.838Z,48.90
2022-12-14T20:24:29.459Z,48.88
2022-12-14T20:26:56.152Z,49.00
2022-12-14T20:29:23.091Z,49.01
2022-12-14T20:31:49.809Z,49.07
2022-12-14T20:34:16.435Z,49.19
2022-12-14T20:36:42.920Z,49.31
2022-12-14T20:39:10.034Z,49.29
2022-12-14T20:41:36.835Z,49.33
2022-12-14T20:44:07.380Z,49.53
2022-12-14T20:46:36.205Z,49.37
2022-12-14T20:49:08.163Z,49.56
2022-12-14T20:51:37.862Z,49.44
2022-12-14T20:54:06.337Z,49.36
2022-12-14T20:56:34.744Z,49.67
2022-12-14T20:59:01.463Z,49.58
2022-12-14T21:01:28.332Z,49.52
2022-12-14T21:03:57.603Z,49.44
2022-12-14T21:06:25.197Z,49.51
2022-12-14T21:09:10.275Z,49.60
2022-12-14T21:12:04.277Z,49.64
2022-12-14T21:14:36.232Z,49.67
2022-12-14T21:17:04.019Z,49.73
2022-12-14T21:19:32.125Z,49.62
2022-12-14T21:21:58.784Z,49.66
2022-12-14T21:25:00.557Z,49.70
2022-12-14T21:27:22.194Z,49.78
2022-12-14T21:29:49.719Z,49.82
2022-12-14T21:32:17.059Z,49.91
2022-12-14T21:34:44.253Z,49.98
2022-12-14T21:37:11.322Z,49.85
2022-12-14T21:39:38.200Z,49.66
2022-12-14T21:42:10.623Z,49.87
2022-12-14T21:44:37.640Z,49.74
2022-12-14T21:47:07.181Z,49.99
2022-12-14T21:49:36.734Z,49.71
2022-12-14T21:52:07.298Z,49.74
2022-12-14T21:54:36.002Z,49.38
2022-12-14T21:57:20.982Z,49.41
2022-12-14T21:59:47.648Z,49.57
2022-12-14T22:02:14.304Z,49.44
2022-12-14T22:04:41.342Z,49.51
2022-12-14T22:07:07.914Z,49.53
2022-12-14T22:09:34.423Z,49.45
2022-12-14T22:12:00.974Z,49.51
2022-12-14T22:14:27.458Z,49.44
2022-12-14T22:16:54.053Z,49.56
2022-12-14T22:19:23.134Z,49.60
2022-12-14T22:21:50.948Z,49.54
2022-12-14T22:24:18.614Z,49.40
2022-12-14T22:26:45.510Z,49.66
2022-12-14T22:29:13.019Z,49.43
2022-12-14T22:31:39.601Z,49.44
2022-12-14T22:34:06.945Z,49.37
2022-12-14T22:36:33.422Z,49.73
2022-12-14T22:39:00.029Z,49.39
2022-12-14T22:41:27.436Z,49.61
2022-12-14T22:43:58.476Z,49.39
2022-12-14T22:46:26.747Z,49.39
2022-12-14T22:48:53.879Z,49.40
2022-12-14T22:51:21.881Z,49.24
2022-12-14T22:53:49.730Z,49.37
2022-12-14T22:56:31.172Z,49.41
2022-12-14T22:59:02.500Z,49.34
2022-12-14T23:01:29.685Z,49.42
2022-12-14T23:03:56.772Z,49.20
2022-12-14T23:06:23.469Z,49.31
2022-12-14T23:09:08.681Z,49.25
2022-12-14T23:11:53.723Z,49.33
2022-12-14T23:14:39.079Z,49.54
2022-12-14T23:17:28.013Z,49.58
2022-12-14T23:20:12.906Z,49.53
2022-12-14T23:22:57.938Z,49.62
2022-12-14T23:25:42.747Z,49.52
2022-12-14T23:28:28.049Z,49.64
2022-12-14T23:31:15.647Z,49.72
2022-12-14T23:34:01.272Z,49.61
2022-12-14T23:36:46.634Z,49.73
2022-12-14T23:39:31.375Z,49.79
2022-12-14T23:42:16.395Z,49.63
2022-12-14T23:45:01.267Z,49.68
2022-12-14T23:47:46.299Z,49.73
2022-12-14T23:50:34.671Z,49.72
2022-12-14T23:53:27.681Z,49.84
2022-12-14T23:56:12.849Z,49.68
2022-12-14T23:58:57.548Z,49.66
